sensor_id;sensor_type;location;lat;lon;timestamp;P1;durP1;ratioP1;P2;durP2;ratioP2
53299;SDS011;39187;48.476;8.310;2023-07-29T00:01:19;2.90;;;1.30;;
53299;SDS011;39187;48.476;8.310;2023-07-29T00:03:44;1.17;;;1.10;;
53299;SDS011;39187;48.476;8.310;2023-07-29T00:06:10;1.20;;;1.20;;
53299;SDS011;39187;48.476;8.310;2023-07-29T00:08:35;0.83;;;0.83;;
53299;SDS011;39187;48.476;8.310;2023-07-29T00:11:01;1.10;;;0.90;;
53299;SDS011;39187;48.476;8.310;2023-07-29T00:13:26;1.07;;;1.00;;
53299;SDS011;39187;48.476;8.310;2023-07-29T00:15:53;1.40;;;1.30;;
53299;SDS011;39187;48.476;8.310;2023-07-29T00:18:20;1.00;;;1.00;;
53299;SDS011;39187;48.476;8.310;2023-07-29T00:20:47;1.43;;;1.33;;
53299;SDS011;39187;48.476;8.310;2023-07-29T00:23:12;1.20;;;1.10;;
53299;SDS011;39187;48.476;8.310;2023-07-29T00:25:38;4.57;;;1.33;;
53299;SDS011;39187;48.476;8.310;2023-07-29T00:28:03;1.17;;;1.17;;
53299;SDS011;39187;48.476;8.310;2023-07-29T00:30:29;2.53;;;1.33;;
53299;SDS011;39187;48.476;8.310;2023-07-29T00:32:55;1.53;;;1.43;;
53299;SDS011;39187;48.476;8.310;2023-07-29T00:35:20;1.40;;;1.30;;
53299;SDS011;39187;48.476;8.310;2023-07-29T00:37:46;1.57;;;1.47;;
53299;SDS011;39187;48.476;8.310;2023-07-29T00:40:15;1.10;;;1.10;;
53299;SDS011;39187;48.476;8.310;2023-07-29T00:42:45;1.20;;;1.10;;
53299;SDS011;39187;48.476;8.310;2023-07-29T00:45:10;4.83;;;1.53;;
53299;SDS011;39187;48.476;8.310;2023-07-29T00:47:36;1.50;;;1.40;;
53299;SDS011;39187;48.476;8.310;2023-07-29T00:50:03;1.07;;;1.07;;
53299;SDS011;39187;48.476;8.310;2023-07-29T00:52:29;1.67;;;1.57;;
53299;SDS011;39187;48.476;8.310;2023-07-29T00:54:54;1.53;;;1.43;;
53299;SDS011;39187;48.476;8.310;2023-07-29T00:57:20;1.17;;;1.13;;
53299;SDS011;39187;48.476;8.310;2023-07-29T00:59:46;1.17;;;1.17;;
53299;SDS011;39187;48.476;8.310;2023-07-29T01:02:12;1.20;;;1.20;;
53299;SDS011;39187;48.476;8.310;2023-07-29T01:04:38;8.40;;;1.70;;
53299;SDS011;39187;48.476;8.310;2023-07-29T01:10:02;1.50;;;1.40;;
53299;SDS011;39187;48.476;8.310;2023-07-29T01:15:20;1.23;;;1.13;;
53299;SDS011;39187;48.476;8.310;2023-07-29T01:17:48;1.40;;;1.30;;
53299;SDS011;39187;48.476;8.310;2023-07-29T01:20:19;1.00;;;1.00;;
53299;SDS011;39187;48.476;8.310;2023-07-29T01:22:45;1.50;;;1.40;;
53299;SDS011;39187;48.476;8.310;2023-07-29T01:25:12;1.47;;;1.37;;
53299;SDS011;39187;48.476;8.310;2023-07-29T01:27:38;0.93;;;0.93;;
53299;SDS011;39187;48.476;8.310;2023-07-29T01:30:05;1.53;;;1.40;;
53299;SDS011;39187;48.476;8.310;2023-07-29T01:38:20;1.00;;;0.90;;
53299;SDS011;39187;48.476;8.310;2023-07-29T01:40:56;3.03;;;1.23;;
53299;SDS011;39187;48.476;8.310;2023-07-29T01:43:24;1.10;;;1.10;;
53299;SDS011;39187;48.476;8.310;2023-07-29T01:45:51;1.50;;;1.40;;
53299;SDS011;39187;48.476;8.310;2023-07-29T01:48:16;1.87;;;1.40;;
53299;SDS011;39187;48.476;8.310;2023-07-29T01:50:42;1.43;;;1.33;;
53299;SDS011;39187;48.476;8.310;2023-07-29T01:53:08;1.20;;;1.20;;
53299;SDS011;39187;48.476;8.310;2023-07-29T01:55:33;1.87;;;1.43;;
53299;SDS011;39187;48.476;8.310;2023-07-29T01:57:59;1.73;;;1.37;;
53299;SDS011;39187;48.476;8.310;2023-07-29T02:00:24;2.00;;;1.90;;
53299;SDS011;39187;48.476;8.310;2023-07-29T02:02:50;1.40;;;1.17;;
53299;SDS011;39187;48.476;8.310;2023-07-29T02:05:15;1.63;;;1.53;;
53299;SDS011;39187;48.476;8.310;2023-07-29T02:07:41;1.50;;;1.40;;
53299;SDS011;39187;48.476;8.310;2023-07-29T02:12:49;1.83;;;1.30;;
53299;SDS011;39187;48.476;8.310;2023-07-29T02:15:14;1.60;;;1.50;;
53299;SDS011;39187;48.476;8.310;2023-07-29T02:17:41;3.47;;;1.40;;
53299;SDS011;39187;48.476;8.310;2023-07-29T02:20:07;1.20;;;1.20;;
53299;SDS011;39187;48.476;8.310;2023-07-29T02:22:33;1.37;;;1.27;;
53299;SDS011;39187;48.476;8.310;2023-07-29T02:24:59;3.50;;;1.37;;
53299;SDS011;39187;48.476;8.310;2023-07-29T02:27:26;1.77;;;1.67;;
53299;SDS011;39187;48.476;8.310;2023-07-29T02:29:52;2.20;;;1.30;;
53299;SDS011;39187;48.476;8.310;2023-07-29T02:32:18;1.33;;;1.23;;
53299;SDS011;39187;48.476;8.310;2023-07-29T02:34:44;1.40;;;1.30;;
53299;SDS011;39187;48.476;8.310;2023-07-29T02:37:10;1.67;;;1.57;;
53299;SDS011;39187;48.476;8.310;2023-07-29T02:39:36;1.50;;;1.37;;
53299;SDS011;39187;48.476;8.310;2023-07-29T02:42:02;1.70;;;1.20;;
53299;SDS011;39187;48.476;8.310;2023-07-29T02:44:27;1.30;;;1.20;;
53299;SDS011;39187;48.476;8.310;2023-07-29T02:46:53;1.10;;;1.00;;
53299;SDS011;39187;48.476;8.310;2023-07-29T02:49:21;1.23;;;1.20;;
53299;SDS011;39187;48.476;8.310;2023-07-29T02:51:47;1.20;;;1.20;;
53299;SDS011;39187;48.476;8.310;2023-07-29T02:54:12;1.80;;;1.33;;
53299;SDS011;39187;48.476;8.310;2023-07-29T02:56:38;1.33;;;1.23;;
53299;SDS011;39187;48.476;8.310;2023-07-29T02:59:03;1.30;;;1.30;;
53299;SDS011;39187;48.476;8.310;2023-07-29T03:01:30;1.80;;;1.70;;
53299;SDS011;39187;48.476;8.310;2023-07-29T03:03:56;2.40;;;1.33;;
53299;SDS011;39187;48.476;8.310;2023-07-29T03:06:21;2.40;;;1.23;;
53299;SDS011;39187;48.476;8.310;2023-07-29T03:08:47;1.27;;;1.17;;
53299;SDS011;39187;48.476;8.310;2023-07-29T03:11:13;1.73;;;1.63;;
53299;SDS011;39187;48.476;8.310;2023-07-29T03:13:39;1.60;;;1.50;;
53299;SDS011;39187;48.476;8.310;2023-07-29T03:16:09;1.80;;;1.70;;
53299;SDS011;39187;48.476;8.310;2023-07-29T03:18:41;1.63;;;1.53;;
53299;SDS011;39187;48.476;8.310;2023-07-29T03:21:08;2.00;;;1.90;;
53299;SDS011;39187;48.476;8.310;2023-07-29T03:23:34;1.60;;;1.50;;
53299;SDS011;39187;48.476;8.310;2023-07-29T03:26:00;1.67;;;1.57;;
53299;SDS011;39187;48.476;8.310;2023-07-29T03:28:29;2.17;;;1.70;;
53299;SDS011;39187;48.476;8.310;2023-07-29T03:30:58;1.60;;;1.50;;
53299;SDS011;39187;48.476;8.310;2023-07-29T03:33:24;1.93;;;1.83;;
53299;SDS011;39187;48.476;8.310;2023-07-29T03:35:51;1.97;;;1.53;;
53299;SDS011;39187;48.476;8.310;2023-07-29T03:38:17;2.30;;;1.60;;
53299;SDS011;39187;48.476;8.310;2023-07-29T03:40:42;1.70;;;1.60;;
53299;SDS011;39187;48.476;8.310;2023-07-29T03:43:08;1.93;;;1.83;;
53299;SDS011;39187;48.476;8.310;2023-07-29T03:45:34;2.07;;;1.97;;
53299;SDS011;39187;48.476;8.310;2023-07-29T03:48:01;2.20;;;2.10;;
53299;SDS011;39187;48.476;8.310;2023-07-29T03:50:27;4.60;;;2.80;;
53299;SDS011;39187;48.476;8.310;2023-07-29T03:52:54;1.67;;;1.57;;
53299;SDS011;39187;48.476;8.310;2023-07-29T03:55:20;1.67;;;1.57;;
53299;SDS011;39187;48.476;8.310;2023-07-29T03:57:45;1.70;;;1.60;;
53299;SDS011;39187;48.476;8.310;2023-07-29T04:00:11;3.53;;;2.53;;
53299;SDS011;39187;48.476;8.310;2023-07-29T04:02:37;1.60;;;1.50;;
53299;SDS011;39187;48.476;8.310;2023-07-29T04:05:04;0.90;;;0.90;;
53299;SDS011;39187;48.476;8.310;2023-07-29T04:07:30;2.33;;;1.00;;
53299;SDS011;39187;48.476;8.310;2023-07-29T04:09:56;0.70;;;0.63;;
53299;SDS011;39187;48.476;8.310;2023-07-29T04:12:22;0.70;;;0.60;;
53299;SDS011;39187;48.476;8.310;2023-07-29T04:14:48;0.70;;;0.70;;
53299;SDS011;39187;48.476;8.310;2023-07-29T04:17:14;1.30;;;1.20;;
53299;SDS011;39187;48.476;8.310;2023-07-29T04:19:39;1.73;;;1.63;;
53299;SDS011;39187;48.476;8.310;2023-07-29T04:22:05;1.83;;;1.73;;
53299;SDS011;39187;48.476;8.310;2023-07-29T04:24:30;2.47;;;2.27;;
53299;SDS011;39187;48.476;8.310;2023-07-29T04:26:56;3.10;;;2.60;;
53299;SDS011;39187;48.476;8.310;2023-07-29T04:29:21;2.40;;;2.30;;
53299;SDS011;39187;48.476;8.310;2023-07-29T04:31:48;5.03;;;2.73;;
53299;SDS011;39187;48.476;8.310;2023-07-29T04:34:14;2.53;;;2.33;;
53299;SDS011;39187;48.476;8.310;2023-07-29T04:36:40;3.20;;;2.93;;
53299;SDS011;39187;48.476;8.310;2023-07-29T04:39:05;3.50;;;3.40;;
53299;SDS011;39187;48.476;8.310;2023-07-29T04:41:31;4.50;;;4.10;;
53299;SDS011;39187;48.476;8.310;2023-07-29T04:43:56;4.10;;;3.90;;
53299;SDS011;39187;48.476;8.310;2023-07-29T04:46:22;3.67;;;3.47;;
53299;SDS011;39187;48.476;8.310;2023-07-29T04:48:48;3.13;;;2.87;;
53299;SDS011;39187;48.476;8.310;2023-07-29T04:51:13;3.60;;;3.43;;
53299;SDS011;39187;48.476;8.310;2023-07-29T04:53:39;3.97;;;3.70;;
53299;SDS011;39187;48.476;8.310;2023-07-29T04:56:04;3.93;;;3.50;;
53299;SDS011;39187;48.476;8.310;2023-07-29T04:58:30;4.43;;;4.13;;
53299;SDS011;39187;48.476;8.310;2023-07-29T05:00:56;5.63;;;3.93;;
53299;SDS011;39187;48.476;8.310;2023-07-29T05:03:22;4.10;;;3.70;;
53299;SDS011;39187;48.476;8.310;2023-07-29T05:05:47;3.90;;;3.70;;
53299;SDS011;39187;48.476;8.310;2023-07-29T05:08:13;4.30;;;4.10;;
53299;SDS011;39187;48.476;8.310;2023-07-29T05:10:39;3.60;;;3.40;;
53299;SDS011;39187;48.476;8.310;2023-07-29T05:13:04;4.00;;;3.80;;
53299;SDS011;39187;48.476;8.310;2023-07-29T05:15:30;6.57;;;3.60;;
53299;SDS011;39187;48.476;8.310;2023-07-29T05:17:55;4.43;;;4.17;;
53299;SDS011;39187;48.476;8.310;2023-07-29T05:20:21;4.40;;;3.70;;
53299;SDS011;39187;48.476;8.310;2023-07-29T05:22:46;4.90;;;4.70;;
53299;SDS011;39187;48.476;8.310;2023-07-29T05:25:12;4.23;;;4.03;;
53299;SDS011;39187;48.476;8.310;2023-07-29T05:27:37;4.27;;;4.07;;
53299;SDS011;39187;48.476;8.310;2023-07-29T05:30:03;5.37;;;4.97;;
53299;SDS011;39187;48.476;8.310;2023-07-29T05:32:29;5.13;;;4.83;;
53299;SDS011;39187;48.476;8.310;2023-07-29T05:34:54;7.00;;;5.00;;
53299;SDS011;39187;48.476;8.310;2023-07-29T05:37:20;5.23;;;4.80;;
53299;SDS011;39187;48.476;8.310;2023-07-29T05:39:45;5.53;;;4.90;;
53299;SDS011;39187;48.476;8.310;2023-07-29T05:42:11;4.73;;;4.53;;
53299;SDS011;39187;48.476;8.310;2023-07-29T05:44:36;4.33;;;4.10;;
53299;SDS011;39187;48.476;8.310;2023-07-29T05:47:02;4.30;;;4.00;;
53299;SDS011;39187;48.476;8.310;2023-07-29T05:49:28;5.43;;;5.10;;
53299;SDS011;39187;48.476;8.310;2023-07-29T05:51:53;5.03;;;4.73;;
53299;SDS011;39187;48.476;8.310;2023-07-29T05:54:19;4.77;;;4.57;;
53299;SDS011;39187;48.476;8.310;2023-07-29T05:56:44;4.20;;;3.90;;
53299;SDS011;39187;48.476;8.310;2023-07-29T05:59:10;2.73;;;2.63;;
53299;SDS011;39187;48.476;8.310;2023-07-29T06:01:35;3.10;;;1.70;;
53299;SDS011;39187;48.476;8.310;2023-07-29T06:04:01;1.30;;;1.20;;
53299;SDS011;39187;48.476;8.310;2023-07-29T06:06:27;1.30;;;1.20;;
53299;SDS011;39187;48.476;8.310;2023-07-29T06:08:52;0.80;;;0.80;;
53299;SDS011;39187;48.476;8.310;2023-07-29T06:11:18;0.97;;;0.80;;
53299;SDS011;39187;48.476;8.310;2023-07-29T06:13:44;2.10;;;0.90;;
53299;SDS011;39187;48.476;8.310;2023-07-29T06:16:09;1.17;;;0.90;;
53299;SDS011;39187;48.476;8.310;2023-07-29T06:18:34;0.93;;;0.93;;
53299;SDS011;39187;48.476;8.310;2023-07-29T06:21:00;1.27;;;0.90;;
53299;SDS011;39187;48.476;8.310;2023-07-29T06:23:25;1.27;;;1.17;;
53299;SDS011;39187;48.476;8.310;2023-07-29T06:25:51;1.40;;;1.20;;
53299;SDS011;39187;48.476;8.310;2023-07-29T06:28:16;1.47;;;1.37;;
53299;SDS011;39187;48.476;8.310;2023-07-29T06:30:42;1.40;;;1.30;;
53299;SDS011;39187;48.476;8.310;2023-07-29T06:33:07;1.43;;;1.33;;
53299;SDS011;39187;48.476;8.310;2023-07-29T06:35:33;1.67;;;1.27;;
53299;SDS011;39187;48.476;8.310;2023-07-29T06:37:59;1.73;;;1.63;;
53299;SDS011;39187;48.476;8.310;2023-07-29T06:40:24;1.60;;;1.50;;
53299;SDS011;39187;48.476;8.310;2023-07-29T06:42:50;1.60;;;1.50;;
53299;SDS011;39187;48.476;8.310;2023-07-29T06:45:16;1.17;;;1.17;;
53299;SDS011;39187;48.476;8.310;2023-07-29T06:47:41;1.57;;;1.30;;
53299;SDS011;39187;48.476;8.310;2023-07-29T06:50:07;1.40;;;1.30;;
53299;SDS011;39187;48.476;8.310;2023-07-29T06:52:32;2.70;;;1.67;;
53299;SDS011;39187;48.476;8.310;2023-07-29T06:54:58;5.93;;;1.73;;
53299;SDS011;39187;48.476;8.310;2023-07-29T06:57:23;2.00;;;1.90;;
53299;SDS011;39187;48.476;8.310;2023-07-29T06:59:49;1.83;;;1.73;;
53299;SDS011;39187;48.476;8.310;2023-07-29T07:02:14;2.00;;;1.90;;
53299;SDS011;39187;48.476;8.310;2023-07-29T07:04:40;2.77;;;2.57;;
53299;SDS011;39187;48.476;8.310;2023-07-29T07:07:05;2.20;;;2.10;;
53299;SDS011;39187;48.476;8.310;2023-07-29T07:09:31;2.27;;;2.17;;
53299;SDS011;39187;48.476;8.310;2023-07-29T07:11:56;2.30;;;1.80;;
53299;SDS011;39187;48.476;8.310;2023-07-29T07:14:22;2.47;;;2.27;;
53299;SDS011;39187;48.476;8.310;2023-07-29T07:16:47;2.03;;;1.93;;
53299;SDS011;39187;48.476;8.310;2023-07-29T07:19:13;1.70;;;1.60;;
53299;SDS011;39187;48.476;8.310;2023-07-29T07:21:38;2.37;;;2.27;;
53299;SDS011;39187;48.476;8.310;2023-07-29T07:24:04;2.10;;;2.00;;
53299;SDS011;39187;48.476;8.310;2023-07-29T07:26:29;2.23;;;2.13;;
53299;SDS011;39187;48.476;8.310;2023-07-29T07:28:55;2.30;;;2.20;;
53299;SDS011;39187;48.476;8.310;2023-07-29T07:31:21;2.00;;;1.90;;
53299;SDS011;39187;48.476;8.310;2023-07-29T07:33:47;2.13;;;2.03;;
53299;SDS011;39187;48.476;8.310;2023-07-29T07:36:13;2.20;;;2.10;;
53299;SDS011;39187;48.476;8.310;2023-07-29T07:38:38;2.10;;;2.00;;
53299;SDS011;39187;48.476;8.310;2023-07-29T07:41:04;2.47;;;2.37;;
53299;SDS011;39187;48.476;8.310;2023-07-29T07:43:29;2.60;;;2.50;;
53299;SDS011;39187;48.476;8.310;2023-07-29T07:45:59;2.10;;;2.00;;
53299;SDS011;39187;48.476;8.310;2023-07-29T07:48:26;2.80;;;2.60;;
53299;SDS011;39187;48.476;8.310;2023-07-29T07:50:52;2.23;;;2.13;;
53299;SDS011;39187;48.476;8.310;2023-07-29T07:53:17;1.60;;;1.50;;
53299;SDS011;39187;48.476;8.310;2023-07-29T07:55:43;1.90;;;1.80;;
53299;SDS011;39187;48.476;8.310;2023-07-29T07:58:08;2.40;;;2.30;;
53299;SDS011;39187;48.476;8.310;2023-07-29T08:00:34;2.00;;;1.90;;
53299;SDS011;39187;48.476;8.310;2023-07-29T08:02:59;2.43;;;2.33;;
53299;SDS011;39187;48.476;8.310;2023-07-29T08:05:25;1.83;;;1.73;;
53299;SDS011;39187;48.476;8.310;2023-07-29T08:07:50;2.13;;;2.03;;
53299;SDS011;39187;48.476;8.310;2023-07-29T08:10:16;2.47;;;2.37;;
53299;SDS011;39187;48.476;8.310;2023-07-29T08:12:41;2.20;;;2.10;;
53299;SDS011;39187;48.476;8.310;2023-07-29T08:15:07;1.90;;;1.80;;
53299;SDS011;39187;48.476;8.310;2023-07-29T08:17:32;2.20;;;2.10;;
53299;SDS011;39187;48.476;8.310;2023-07-29T08:19:58;2.90;;;2.80;;
53299;SDS011;39187;48.476;8.310;2023-07-29T08:22:23;2.70;;;2.60;;
53299;SDS011;39187;48.476;8.310;2023-07-29T08:24:49;2.30;;;2.20;;
53299;SDS011;39187;48.476;8.310;2023-07-29T08:27:14;2.60;;;2.50;;
53299;SDS011;39187;48.476;8.310;2023-07-29T08:29:40;2.50;;;2.40;;
53299;SDS011;39187;48.476;8.310;2023-07-29T08:32:05;2.90;;;2.80;;
53299;SDS011;39187;48.476;8.310;2023-07-29T08:34:31;2.60;;;2.50;;
53299;SDS011;39187;48.476;8.310;2023-07-29T08:36:56;3.50;;;3.23;;
53299;SDS011;39187;48.476;8.310;2023-07-29T08:39:22;3.10;;;3.00;;
53299;SDS011;39187;48.476;8.310;2023-07-29T08:41:54;2.90;;;2.80;;
53299;SDS011;39187;48.476;8.310;2023-07-29T08:44:26;2.53;;;2.43;;
53299;SDS011;39187;48.476;8.310;2023-07-29T08:47:00;2.77;;;2.67;;
53299;SDS011;39187;48.476;8.310;2023-07-29T08:49:26;2.63;;;2.53;;
53299;SDS011;39187;48.476;8.310;2023-07-29T08:51:53;3.10;;;2.83;;
53299;SDS011;39187;48.476;8.310;2023-07-29T08:54:19;2.80;;;2.70;;
53299;SDS011;39187;48.476;8.310;2023-07-29T08:56:45;2.73;;;2.63;;
53299;SDS011;39187;48.476;8.310;2023-07-29T08:59:11;2.60;;;2.40;;
53299;SDS011;39187;48.476;8.310;2023-07-29T09:01:38;3.50;;;3.30;;
53299;SDS011;39187;48.476;8.310;2023-07-29T09:04:04;11.87;;;3.30;;
53299;SDS011;39187;48.476;8.310;2023-07-29T09:06:30;3.03;;;2.93;;
53299;SDS011;39187;48.476;8.310;2023-07-29T09:08:56;3.00;;;2.83;;
53299;SDS011;39187;48.476;8.310;2023-07-29T09:11:23;3.43;;;2.83;;
53299;SDS011;39187;48.476;8.310;2023-07-29T09:13:49;4.53;;;3.50;;
53299;SDS011;39187;48.476;8.310;2023-07-29T09:16:15;2.87;;;2.67;;
53299;SDS011;39187;48.476;8.310;2023-07-29T09:18:41;3.13;;;2.93;;
53299;SDS011;39187;48.476;8.310;2023-07-29T09:21:06;3.03;;;2.83;;
53299;SDS011;39187;48.476;8.310;2023-07-29T09:23:38;2.97;;;2.83;;
53299;SDS011;39187;48.476;8.310;2023-07-29T09:26:07;2.90;;;2.80;;
53299;SDS011;39187;48.476;8.310;2023-07-29T09:28:37;2.60;;;2.50;;
53299;SDS011;39187;48.476;8.310;2023-07-29T09:31:03;2.60;;;2.20;;
53299;SDS011;39187;48.476;8.310;2023-07-29T09:33:32;2.47;;;2.37;;
53299;SDS011;39187;48.476;8.310;2023-07-29T09:36:00;2.83;;;2.63;;
53299;SDS011;39187;48.476;8.310;2023-07-29T09:38:26;2.73;;;2.63;;
53299;SDS011;39187;48.476;8.310;2023-07-29T09:40:56;4.90;;;2.90;;
53299;SDS011;39187;48.476;8.310;2023-07-29T09:43:29;3.20;;;3.00;;
53299;SDS011;39187;48.476;8.310;2023-07-29T09:45:59;2.90;;;2.70;;
53299;SDS011;39187;48.476;8.310;2023-07-29T09:48:31;5.13;;;3.07;;
53299;SDS011;39187;48.476;8.310;2023-07-29T09:50:58;2.93;;;2.83;;
53299;SDS011;39187;48.476;8.310;2023-07-29T09:53:24;2.90;;;2.73;;
53299;SDS011;39187;48.476;8.310;2023-07-29T09:55:50;2.90;;;2.80;;
53299;SDS011;39187;48.476;8.310;2023-07-29T09:58:19;3.30;;;3.10;;
53299;SDS011;39187;48.476;8.310;2023-07-29T10:00:52;3.43;;;2.67;;
53299;SDS011;39187;48.476;8.310;2023-07-29T10:03:18;2.87;;;2.77;;
53299;SDS011;39187;48.476;8.310;2023-07-29T10:05:45;3.00;;;2.90;;
53299;SDS011;39187;48.476;8.310;2023-07-29T10:08:11;2.77;;;2.53;;
53299;SDS011;39187;48.476;8.310;2023-07-29T10:10:38;3.37;;;2.40;;
53299;SDS011;39187;48.476;8.310;2023-07-29T10:13:06;3.00;;;2.70;;
53299;SDS011;39187;48.476;8.310;2023-07-29T10:15:32;3.30;;;3.10;;
53299;SDS011;39187;48.476;8.310;2023-07-29T10:17:58;2.93;;;2.73;;
53299;SDS011;39187;48.476;8.310;2023-07-29T10:20:24;2.93;;;2.83;;
53299;SDS011;39187;48.476;8.310;2023-07-29T10:22:50;2.83;;;2.70;;
53299;SDS011;39187;48.476;8.310;2023-07-29T10:25:22;2.80;;;2.40;;
53299;SDS011;39187;48.476;8.310;2023-07-29T10:27:52;6.70;;;2.60;;
53299;SDS011;39187;48.476;8.310;2023-07-29T10:30:21;8.97;;;3.17;;
53299;SDS011;39187;48.476;8.310;2023-07-29T10:32:48;4.27;;;3.20;;
53299;SDS011;39187;48.476;8.310;2023-07-29T10:35:15;2.77;;;2.67;;
53299;SDS011;39187;48.476;8.310;2023-07-29T10:37:41;3.23;;;3.03;;
53299;SDS011;39187;48.476;8.310;2023-07-29T10:40:08;3.10;;;2.90;;
53299;SDS011;39187;48.476;8.310;2023-07-29T10:42:35;2.47;;;2.37;;
53299;SDS011;39187;48.476;8.310;2023-07-29T10:45:17;2.70;;;2.60;;
53299;SDS011;39187;48.476;8.310;2023-07-29T10:47:46;3.10;;;3.00;;
53299;SDS011;39187;48.476;8.310;2023-07-29T10:50:19;3.23;;;2.93;;
53299;SDS011;39187;48.476;8.310;2023-07-29T10:52:50;3.90;;;3.70;;
53299;SDS011;39187;48.476;8.310;2023-07-29T10:55:33;3.57;;;3.37;;
53299;SDS011;39187;48.476;8.310;2023-07-29T10:58:05;4.20;;;4.00;;
53299;SDS011;39187;48.476;8.310;2023-07-29T11:00:33;3.30;;;3.10;;
53299;SDS011;39187;48.476;8.310;2023-07-29T11:03:00;3.43;;;3.10;;
53299;SDS011;39187;48.476;8.310;2023-07-29T11:05:41;2.97;;;2.73;;
53299;SDS011;39187;48.476;8.310;2023-07-29T11:08:20;4.17;;;3.40;;
53299;SDS011;39187;48.476;8.310;2023-07-29T11:11:04;2.70;;;2.60;;
53299;SDS011;39187;48.476;8.310;2023-07-29T11:13:34;3.10;;;2.90;;
53299;SDS011;39187;48.476;8.310;2023-07-29T11:16:01;4.07;;;3.47;;
53299;SDS011;39187;48.476;8.310;2023-07-29T11:18:28;2.50;;;2.40;;
53299;SDS011;39187;48.476;8.310;2023-07-29T11:20:59;3.47;;;3.30;;
53299;SDS011;39187;48.476;8.310;2023-07-29T11:23:35;2.43;;;2.33;;
53299;SDS011;39187;48.476;8.310;2023-07-29T11:26:02;2.80;;;2.53;;
53299;SDS011;39187;48.476;8.310;2023-07-29T11:28:29;3.30;;;3.10;;
53299;SDS011;39187;48.476;8.310;2023-07-29T11:30:55;3.57;;;2.80;;
53299;SDS011;39187;48.476;8.310;2023-07-29T11:33:23;2.57;;;2.47;;
53299;SDS011;39187;48.476;8.310;2023-07-29T11:35:50;2.80;;;2.60;;
53299;SDS011;39187;48.476;8.310;2023-07-29T11:38:17;3.20;;;2.90;;
53299;SDS011;39187;48.476;8.310;2023-07-29T11:40:44;2.93;;;2.83;;
53299;SDS011;39187;48.476;8.310;2023-07-29T11:43:19;2.60;;;2.50;;
53299;SDS011;39187;48.476;8.310;2023-07-29T11:45:45;3.40;;;3.30;;
53299;SDS011;39187;48.476;8.310;2023-07-29T11:48:10;2.43;;;2.33;;
53299;SDS011;39187;48.476;8.310;2023-07-29T11:50:36;2.80;;;2.40;;
53299;SDS011;39187;48.476;8.310;2023-07-29T11:53:02;2.50;;;2.40;;
53299;SDS011;39187;48.476;8.310;2023-07-29T11:55:28;2.93;;;2.67;;
53299;SDS011;39187;48.476;8.310;2023-07-29T11:57:53;5.20;;;2.20;;
53299;SDS011;39187;48.476;8.310;2023-07-29T12:00:19;2.50;;;2.40;;
53299;SDS011;39187;48.476;8.310;2023-07-29T12:02:47;4.03;;;1.90;;
53299;SDS011;39187;48.476;8.310;2023-07-29T12:05:14;2.50;;;2.30;;
53299;SDS011;39187;48.476;8.310;2023-07-29T12:07:41;2.07;;;1.97;;
53299;SDS011;39187;48.476;8.310;2023-07-29T12:10:08;2.40;;;2.20;;
53299;SDS011;39187;48.476;8.310;2023-07-29T12:12:44;2.60;;;2.40;;
53299;SDS011;39187;48.476;8.310;2023-07-29T12:15:11;2.87;;;2.67;;
53299;SDS011;39187;48.476;8.310;2023-07-29T12:17:40;2.37;;;2.23;;
53299;SDS011;39187;48.476;8.310;2023-07-29T12:20:08;2.63;;;2.53;;
53299;SDS011;39187;48.476;8.310;2023-07-29T12:22:36;2.13;;;2.03;;
53299;SDS011;39187;48.476;8.310;2023-07-29T12:25:02;3.03;;;2.60;;
53299;SDS011;39187;48.476;8.310;2023-07-29T12:27:30;2.50;;;2.40;;
53299;SDS011;39187;48.476;8.310;2023-07-29T12:29:55;2.60;;;2.50;;
53299;SDS011;39187;48.476;8.310;2023-07-29T12:32:24;1.97;;;1.87;;
53299;SDS011;39187;48.476;8.310;2023-07-29T12:34:52;2.77;;;2.57;;
53299;SDS011;39187;48.476;8.310;2023-07-29T12:37:18;2.30;;;2.20;;
53299;SDS011;39187;48.476;8.310;2023-07-29T12:39:44;2.53;;;2.43;;
53299;SDS011;39187;48.476;8.310;2023-07-29T12:42:10;2.43;;;2.33;;
53299;SDS011;39187;48.476;8.310;2023-07-29T12:44:36;6.83;;;2.17;;
53299;SDS011;39187;48.476;8.310;2023-07-29T12:47:04;2.50;;;2.40;;
53299;SDS011;39187;48.476;8.310;2023-07-29T12:49:30;5.33;;;2.20;;
53299;SDS011;39187;48.476;8.310;2023-07-29T12:51:57;3.10;;;2.50;;
53299;SDS011;39187;48.476;8.310;2023-07-29T12:54:24;1.80;;;1.70;;
53299;SDS011;39187;48.476;8.310;2023-07-29T12:56:50;4.03;;;2.73;;
53299;SDS011;39187;48.476;8.310;2023-07-29T12:59:16;6.50;;;1.90;;
53299;SDS011;39187;48.476;8.310;2023-07-29T13:01:42;2.50;;;2.40;;
53299;SDS011;39187;48.476;8.310;2023-07-29T13:04:08;2.67;;;2.57;;
53299;SDS011;39187;48.476;8.310;2023-07-29T13:06:37;3.10;;;2.00;;
53299;SDS011;39187;48.476;8.310;2023-07-29T13:09:03;3.07;;;2.77;;
53299;SDS011;39187;48.476;8.310;2023-07-29T13:11:30;2.60;;;2.50;;
53299;SDS011;39187;48.476;8.310;2023-07-29T13:13:57;2.60;;;2.50;;
53299;SDS011;39187;48.476;8.310;2023-07-29T13:16:23;2.47;;;2.27;;
53299;SDS011;39187;48.476;8.310;2023-07-29T13:18:48;2.20;;;2.10;;
53299;SDS011;39187;48.476;8.310;2023-07-29T13:21:15;2.07;;;1.97;;
53299;SDS011;39187;48.476;8.310;2023-07-29T13:23:40;2.23;;;2.13;;
53299;SDS011;39187;48.476;8.310;2023-07-29T13:26:06;2.90;;;1.60;;
53299;SDS011;39187;48.476;8.310;2023-07-29T13:28:31;2.40;;;2.30;;
53299;SDS011;39187;48.476;8.310;2023-07-29T13:30:57;2.20;;;2.10;;
53299;SDS011;39187;48.476;8.310;2023-07-29T13:33:23;1.97;;;1.87;;
53299;SDS011;39187;48.476;8.310;2023-07-29T13:35:48;2.20;;;2.10;;
53299;SDS011;39187;48.476;8.310;2023-07-29T13:38:14;2.43;;;2.33;;
53299;SDS011;39187;48.476;8.310;2023-07-29T13:40:39;1.70;;;1.60;;
53299;SDS011;39187;48.476;8.310;2023-07-29T13:43:05;3.27;;;3.07;;
53299;SDS011;39187;48.476;8.310;2023-07-29T13:45:31;2.30;;;2.20;;
53299;SDS011;39187;48.476;8.310;2023-07-29T13:47:56;2.00;;;1.90;;
53299;SDS011;39187;48.476;8.310;2023-07-29T13:50:22;2.30;;;2.20;;
53299;SDS011;39187;48.476;8.310;2023-07-29T13:52:47;2.37;;;2.27;;
53299;SDS011;39187;48.476;8.310;2023-07-29T13:55:13;2.40;;;2.20;;
53299;SDS011;39187;48.476;8.310;2023-07-29T13:57:39;2.20;;;2.10;;
53299;SDS011;39187;48.476;8.310;2023-07-29T14:00:07;2.47;;;2.37;;
53299;SDS011;39187;48.476;8.310;2023-07-29T14:02:33;2.00;;;1.90;;
53299;SDS011;39187;48.476;8.310;2023-07-29T14:04:59;2.13;;;2.03;;
53299;SDS011;39187;48.476;8.310;2023-07-29T14:07:24;2.67;;;2.57;;
53299;SDS011;39187;48.476;8.310;2023-07-29T14:09:50;2.10;;;2.00;;
53299;SDS011;39187;48.476;8.310;2023-07-29T14:12:15;2.77;;;2.57;;
53299;SDS011;39187;48.476;8.310;2023-07-29T14:14:41;2.20;;;2.10;;
53299;SDS011;39187;48.476;8.310;2023-07-29T14:17:07;4.43;;;2.33;;
53299;SDS011;39187;48.476;8.310;2023-07-29T14:19:33;2.73;;;2.57;;
53299;SDS011;39187;48.476;8.310;2023-07-29T14:21:59;3.33;;;3.13;;
53299;SDS011;39187;48.476;8.310;2023-07-29T14:24:25;2.20;;;2.10;;
53299;SDS011;39187;48.476;8.310;2023-07-29T14:26:50;2.30;;;2.20;;
53299;SDS011;39187;48.476;8.310;2023-07-29T14:29:16;2.30;;;2.20;;
53299;SDS011;39187;48.476;8.310;2023-07-29T14:31:41;2.27;;;2.17;;
53299;SDS011;39187;48.476;8.310;2023-07-29T14:34:07;2.00;;;1.90;;
53299;SDS011;39187;48.476;8.310;2023-07-29T14:36:32;2.57;;;2.47;;
53299;SDS011;39187;48.476;8.310;2023-07-29T14:38:58;1.93;;;1.83;;
53299;SDS011;39187;48.476;8.310;2023-07-29T14:41:23;2.67;;;2.57;;
53299;SDS011;39187;48.476;8.310;2023-07-29T14:43:49;2.67;;;2.47;;
53299;SDS011;39187;48.476;8.310;2023-07-29T14:46:15;3.03;;;2.93;;
53299;SDS011;39187;48.476;8.310;2023-07-29T14:48:40;2.70;;;2.60;;
53299;SDS011;39187;48.476;8.310;2023-07-29T14:51:06;3.40;;;3.30;;
53299;SDS011;39187;48.476;8.310;2023-07-29T14:53:31;2.20;;;2.10;;
53299;SDS011;39187;48.476;8.310;2023-07-29T14:55:56;3.10;;;3.00;;
53299;SDS011;39187;48.476;8.310;2023-07-29T14:58:22;2.77;;;2.67;;